Time;durP1;ratioP1;P1;durP2;ratioP2;P2;SDS_P1;SDS_P2;PMS_P1;PMS_P2;Temp;Humidity;BMP_temperature;BMP_pressure;BME280_temperature;BME280_humidity;BME280_pressure;Samples;Min_cycle;Max_cycle;Signal;HPM_P1;HPM_P2
2022/03/21 00:01:16;;;;;;;12.48;9.63;;;9.00;94.00;;;;;;5086557;28;20398;-59
2022/03/21 00:03:42;;;;;;;12.38;9.48;;;8.90;93.20;;;;;;5068941;28;20421;-59
2022/03/21 00:06:09;;;;;;;14.10;9.77;;;8.90;93.20;;;;;;5068561;28;20477;-58
2022/03/21 00:08:35;;;;;;;12.52;10.38;;;8.80;92.40;;;;;;5069016;28;20651;-54
2022/03/21 00:11:01;;;;;;;12.13;10.13;;;8.80;92.20;;;;;;5067222;28;20448;-56
2022/03/21 00:13:28;;;;;;;12.00;10.07;;;8.80;93.00;;;;;;5086146;28;20405;-57
2022/03/21 00:15:55;;;;;;;13.23;10.25;;;8.80;94.30;;;;;;5088163;28;20647;-59
2022/03/21 00:18:22;;;;;;;12.82;10.20;;;8.80;93.10;;;;;;5074581;28;20385;-58
2022/03/21 00:20:50;;;;;;;13.07;10.10;;;8.70;94.50;;;;;;5074762;28;20409;-58
2022/03/21 00:23:16;;;;;;;11.65;9.32;;;8.70;94.30;;;;;;5073163;28;20609;-59
2022/03/21 00:25:42;;;;;;;11.73;10.10;;;8.80;94.70;;;;;;5074461;28;20411;-58
2022/03/21 00:28:09;;;;;;;11.32;9.55;;;8.70;93.60;;;;;;5075260;28;20378;-58
2022/03/21 00:30:37;;;;;;;12.10;10.07;;;8.70;93.90;;;;;;5092890;28;20402;-58
2022/03/21 00:33:04;;;;;;;13.68;10.65;;;8.60;92.90;;;;;;5074009;28;20430;-58
2022/03/21 00:35:30;;;;;;;14.05;9.75;;;8.60;92.40;;;;;;5074294;28;20458;-59
2022/03/21 00:37:57;;;;;;;12.57;10.02;;;8.60;93.80;;;;;;5075896;28;20957;-58
2022/03/21 00:40:24;;;;;;;12.27;9.95;;;8.60;93.10;;;;;;5075334;28;20758;-58
2022/03/21 00:42:50;;;;;;;12.43;9.35;;;8.60;93.50;;;;;;5074384;28;20473;-58
2022/03/21 00:45:24;;;;;;;13.20;9.85;;;8.60;94.60;;;;;;5073789;28;20470;-54
2022/03/21 00:47:51;;;;;;;12.43;9.55;;;8.60;94.40;;;;;;5073231;28;20752;-59
2022/03/21 00:50:18;;;;;;;12.13;9.77;;;8.60;94.30;;;;;;5071921;28;20390;-59
2022/03/21 00:52:48;;;;;;;11.37;9.83;;;8.60;94.40;;;;;;5071780;28;20435;-58
2022/03/21 00:55:16;;;;;;;13.05;10.18;;;8.60;94.00;;;;;;5073341;28;20381;-56
2022/03/21 00:57:43;;;;;;;11.25;8.88;;;8.50;93.30;;;;;;5074809;28;20654;-59
2022/03/21 01:00:17;;;;;;;12.13;9.43;;;8.50;92.80;;;;;;5074325;28;20389;-57
2022/03/21 01:02:44;;;;;;;12.02;9.23;;;8.50;93.00;;;;;;5074682;28;20394;-59
2022/03/21 01:05:11;;;;;;;10.82;9.00;;;8.50;92.40;;;;;;5075684;28;20895;-57
2022/03/21 01:07:39;;;;;;;11.55;9.10;;;8.40;92.70;;;;;;5077872;28;20638;-59
2022/03/21 01:10:07;;;;;;;13.50;9.52;;;8.40;93.50;;;;;;5093362;28;20388;-58
2022/03/21 01:12:32;;;;;;;10.40;8.65;;;8.40;92.10;;;;;;5093726;28;20622;-59
2022/03/21 01:14:59;;;;;;;10.80;8.60;;;8.40;93.10;;;;;;5074026;28;20401;-59
2022/03/21 01:17:24;;;;;;;10.10;8.48;;;8.30;92.00;;;;;;5059472;28;20896;-59
2022/03/21 01:19:50;;;;;;;11.20;9.20;;;8.30;92.40;;;;;;5053476;28;20380;-58
2022/03/21 01:22:16;;;;;;;11.57;8.98;;;8.40;91.90;;;;;;5054500;28;20404;-59
2022/03/21 01:24:41;;;;;;;11.20;9.05;;;8.30;92.10;;;;;;5053498;28;20384;-58
2022/03/21 01:27:08;;;;;;;11.27;8.68;;;8.30;92.20;;;;;;5068868;28;20437;-57
2022/03/21 01:29:35;;;;;;;10.20;8.57;;;8.30;92.50;;;;;;5070639;28;20372;-59
2022/03/21 01:32:00;;;;;;;10.00;8.48;;;8.30;92.40;;;;;;5054727;28;20388;-58
2022/03/21 01:34:26;;;;;;;13.13;9.45;;;8.30;91.50;;;;;;5055093;28;20380;-58
2022/03/21 01:36:52;;;;;;;10.57;8.68;;;8.30;91.20;;;;;;5054923;28;20394;-59
2022/03/21 01:39:17;;;;;;;11.25;9.02;;;8.30;91.30;;;;;;5054133;28;20858;-59
2022/03/21 01:41:43;;;;;;;9.93;8.57;;;8.20;91.00;;;;;;5073766;28;20470;-59
2022/03/21 01:44:10;;;;;;;11.03;8.80;;;8.20;92.30;;;;;;5054761;28;20387;-59
2022/03/21 01:46:37;;;;;;;10.57;8.53;;;8.20;92.60;;;;;;5073075;28;20680;-59
2022/03/21 01:49:05;;;;;;;12.25;9.35;;;8.20;92.90;;;;;;5055371;28;20438;-57
2022/03/21 01:51:32;;;;;;;11.35;8.73;;;8.20;93.10;;;;;;5054921;28;20395;-57
2022/03/21 01:56:45;;;;;;;10.25;8.68;;;8.20;92.90;;;;;;5073370;28;20382;-57
2022/03/21 01:59:11;;;;;;;12.55;9.32;;;8.20;92.70;;;;;;5055908;28;20374;-56
2022/03/21 02:01:38;;;;;;;11.47;9.07;;;8.20;92.80;;;;;;5072566;28;20422;-55
2022/03/21 02:04:04;;;;;;;11.32;8.90;;;8.10;92.70;;;;;;5054875;28;20387;-59
2022/03/21 02:06:30;;;;;;;11.13;9.27;;;8.10;92.90;;;;;;5056018;28;20387;-57
2022/03/21 02:08:57;;;;;;;10.98;8.65;;;8.00;92.60;;;;;;5054337;28;20391;-59
2022/03/21 02:11:25;;;;;;;11.00;8.90;;;8.00;93.00;;;;;;5054013;28;20419;-59
2022/03/21 02:13:56;;;;;;;12.18;9.10;;;8.00;93.00;;;;;;5072860;28;20731;-59
2022/03/21 02:16:23;;;;;;;9.70;8.63;;;8.00;92.90;;;;;;5059352;28;20504;-58
2022/03/21 02:18:49;;;;;;;10.43;8.88;;;8.00;92.70;;;;;;5088433;28;20623;-57
2022/03/21 02:21:22;;;;;;;11.68;8.98;;;8.00;93.30;;;;;;5089178;28;20758;-54
2022/03/21 02:24:14;;;;;;;11.05;9.00;;;8.00;93.00;;;;;;5089720;28;20420;-59
2022/03/21 02:26:40;;;;;;;12.88;9.52;;;8.00;93.50;;;;;;5088872;28;20386;-59
2022/03/21 02:29:08;;;;;;;12.05;9.30;;;7.90;92.80;;;;;;5088969;28;20406;-59
2022/03/21 02:31:35;;;;;;;11.90;9.95;;;7.90;93.10;;;;;;5089167;28;20445;-59
2022/03/21 02:34:01;;;;;;;11.45;9.57;;;7.90;92.60;;;;;;5089824;28;20484;-58
2022/03/21 02:36:28;;;;;;;10.73;9.10;;;7.90;92.80;;;;;;5088433;28;20713;-55
2022/03/21 02:38:58;;;;;;;12.50;9.70;;;7.80;93.00;;;;;;5089104;28;20496;-58
2022/03/21 02:41:23;;;;;;;13.27;9.63;;;7.80;93.10;;;;;;5090619;28;20642;-59
2022/03/21 02:43:57;;;;;;;12.73;9.80;;;7.80;93.20;;;;;;5091635;28;20390;-56
2022/03/21 02:46:23;;;;;;;12.15;10.05;;;7.70;93.50;;;;;;5091189;28;20778;-59
2022/03/21 02:48:51;;;;;;;11.50;9.48;;;7.70;93.30;;;;;;5091308;28;20401;-59
2022/03/21 02:51:20;;;;;;;12.30;9.60;;;7.70;93.70;;;;;;5091164;28;20392;-59
2022/03/21 02:53:48;;;;;;;11.23;9.50;;;7.70;93.60;;;;;;5090542;28;20615;-59
2022/03/21 02:56:14;;;;;;;12.73;9.48;;;7.70;93.70;;;;;;5092266;28;20386;-59
2022/03/21 02:58:39;;;;;;;13.17;10.27;;;7.60;93.60;;;;;;5091375;28;20397;-59
2022/03/21 03:01:08;;;;;;;11.43;9.55;;;7.60;93.70;;;;;;5089758;28;21222;-58
2022/03/21 03:03:34;;;;;;;11.55;9.60;;;7.60;93.80;;;;;;5091945;28;20731;-58
2022/03/21 03:05:59;;;;;;;12.00;9.47;;;7.60;93.90;;;;;;5090565;28;20392;-59
2022/03/21 03:08:25;;;;;;;11.93;9.32;;;7.60;93.70;;;;;;5091532;28;20476;-58
2022/03/21 03:10:50;;;;;;;11.85;9.45;;;7.50;93.70;;;;;;5090681;28;20827;-58
2022/03/21 03:13:16;;;;;;;13.27;10.07;;;7.50;93.30;;;;;;5089831;28;20402;-58
2022/03/21 03:15:41;;;;;;;13.57;10.13;;;7.40;94.00;;;;;;5091285;28;20409;-59
2022/03/21 03:18:07;;;;;;;13.25;10.00;;;7.40;93.80;;;;;;5091895;28;20417;-59
2022/03/21 03:20:32;;;;;;;11.60;9.83;;;7.40;93.50;;;;;;5093708;28;20390;-59
2022/03/21 03:23:01;;;;;;;12.15;9.45;;;7.40;93.90;;;;;;5092796;28;20417;-59
2022/03/21 03:25:27;;;;;;;11.77;9.90;;;7.40;94.00;;;;;;5090866;28;20454;-58
2022/03/21 03:27:52;;;;;;;12.43;9.53;;;7.30;93.80;;;;;;5091631;28;20737;-58
2022/03/21 03:30:18;;;;;;;11.30;9.90;;;7.30;94.10;;;;;;5090941;28;20402;-59
2022/03/21 03:32:45;;;;;;;11.82;9.23;;;7.30;94.10;;;;;;5091496;28;20459;-59
2022/03/21 03:35:11;;;;;;;13.18;9.40;;;7.30;94.40;;;;;;5090577;28;20382;-58
2022/03/21 03:37:37;;;;;;;11.35;9.65;;;7.30;93.80;;;;;;5092642;28;20461;-59
2022/03/21 03:40:03;;;;;;;11.23;9.40;;;7.30;93.70;;;;;;5092340;28;20413;-59
2022/03/21 03:42:29;;;;;;;13.40;10.20;;;7.20;93.40;;;;;;5092272;28;20444;-58
2022/03/21 03:44:54;;;;;;;11.77;9.50;;;7.20;93.80;;;;;;5093211;28;20402;-58
2022/03/21 03:47:20;;;;;;;10.57;8.80;;;7.20;94.30;;;;;;5091234;28;20449;-59
2022/03/21 03:49:46;;;;;;;11.90;9.73;;;7.20;94.00;;;;;;5091707;28;20789;-59
2022/03/21 03:52:11;;;;;;;12.73;9.48;;;7.20;94.20;;;;;;5092801;28;20451;-55
2022/03/21 03:54:37;;;;;;;12.52;10.43;;;7.10;94.00;;;;;;5093309;28;20386;-58
2022/03/21 03:57:03;;;;;;;12.53;9.63;;;7.10;94.10;;;;;;5093509;28;20382;-59
2022/03/21 03:59:29;;;;;;;14.35;10.50;;;7.10;94.20;;;;;;5093079;28;20400;-57
2022/03/21 04:01:54;;;;;;;12.98;10.45;;;7.10;94.10;;;;;;5092708;28;20405;-59
2022/03/21 04:04:20;;;;;;;13.83;9.93;;;7.10;94.10;;;;;;5093440;28;20447;-57
2022/03/21 04:06:45;;;;;;;12.67;10.10;;;7.10;94.20;;;;;;5096444;28;20543;-59
2022/03/21 04:09:11;;;;;;;12.63;9.60;;;7.00;94.50;;;;;;5096200;28;20455;-56
2022/03/21 04:11:37;;;;;;;12.95;9.98;;;7.00;94.60;;;;;;5095765;28;20398;-58
2022/03/21 04:14:02;;;;;;;12.27;9.63;;;7.00;94.50;;;;;;5094900;28;20405;-59
2022/03/21 04:16:28;;;;;;;12.70;9.73;;;7.00;94.60;;;;;;5095643;28;20667;-58
2022/03/21 04:18:53;;;;;;;13.90;10.50;;;7.00;94.70;;;;;;5077341;28;20382;-58
2022/03/21 04:21:19;;;;;;;14.18;10.15;;;6.90;94.20;;;;;;5094320;28;20432;-58
2022/03/21 04:23:44;;;;;;;12.03;9.97;;;6.90;94.40;;;;;;5094921;28;20443;-58
2022/03/21 04:26:12;;;;;;;12.07;9.57;;;6.80;94.30;;;;;;5095225;28;20382;-59
2022/03/21 04:28:38;;;;;;;11.18;9.35;;;6.70;94.10;;;;;;5093572;28;20381;-55
2022/03/21 04:31:04;;;;;;;12.27;10.02;;;6.70;94.10;;;;;;5094378;28;20978;-59
2022/03/21 04:33:30;;;;;;;12.35;9.85;;;6.80;94.60;;;;;;5095360;28;20584;-57
2022/03/21 04:35:55;;;;;;;12.48;9.88;;;6.70;93.90;;;;;;5095273;28;20623;-57
2022/03/21 04:38:21;;;;;;;11.93;10.10;;;6.70;94.20;;;;;;5094068;28;20382;-59
2022/03/21 04:40:49;;;;;;;11.88;9.88;;;6.70;94.40;;;;;;5094133;28;20650;-56
2022/03/21 04:43:16;;;;;;;11.90;10.05;;;6.70;93.90;;;;;;5093274;28;20386;-58
2022/03/21 04:45:44;;;;;;;13.43;10.65;;;6.70;94.70;;;;;;5094524;28;20473;-59
2022/03/21 04:48:10;;;;;;;11.73;10.25;;;6.70;94.50;;;;;;5095270;28;20867;-59
2022/03/21 04:50:36;;;;;;;12.43;10.05;;;6.70;95.00;;;;;;5094622;28;20394;-59
2022/03/21 04:53:02;;;;;;;12.18;10.10;;;6.70;94.80;;;;;;5091157;28;20468;-55
2022/03/21 04:55:28;;;;;;;12.65;10.30;;;6.70;94.80;;;;;;5089479;28;20398;-59
2022/03/21 04:57:54;;;;;;;12.35;9.57;;;6.60;94.60;;;;;;5092094;28;20662;-58
2022/03/21 05:00:20;;;;;;;13.13;10.20;;;6.60;94.60;;;;;;5087600;28;20401;-59
2022/03/21 05:02:46;;;;;;;12.43;9.73;;;6.60;94.60;;;;;;5094115;28;20403;-57
2022/03/21 05:05:11;;;;;;;11.82;10.10;;;6.60;94.80;;;;;;5094985;28;20393;-59
2022/03/21 05:07:42;;;;;;;13.00;10.60;;;6.60;95.00;;;;;;5090906;28;20433;-58
2022/03/21 05:10:09;;;;;;;12.38;10.38;;;6.60;94.80;;;;;;5089327;28;20482;-58
2022/03/21 05:12:36;;;;;;;13.68;9.95;;;6.60;95.10;;;;;;5087489;28;20408;-58
2022/03/21 05:15:03;;;;;;;14.27;10.07;;;6.50;94.80;;;;;;5089018;28;20510;-59
2022/03/21 05:17:29;;;;;;;11.88;10.00;;;6.50;94.90;;;;;;5089679;28;20698;-57
2022/03/21 05:19:56;;;;;;;13.27;10.63;;;6.50;94.70;;;;;;5090899;28;20385;-58
2022/03/21 05:22:22;;;;;;;12.63;10.00;;;6.50;94.60;;;;;;5091539;28;20387;-57
2022/03/21 05:35:57;;;;;;;13.90;10.73;;;6.50;94.00;;;;;;5090013;28;20428;-58
2022/03/21 05:38:28;;;;;;;12.70;10.30;;;6.40;94.10;;;;;;5071005;28;20382;-59
2022/03/21 05:41:03;;;;;;;11.30;10.10;;;6.40;94.30;;;;;;5088131;28;20393;-58
2022/03/21 05:43:31;;;;;;;12.43;10.30;;;6.40;94.40;;;;;;5087632;28;20384;-57
2022/03/21 05:46:01;;;;;;;13.32;10.48;;;6.40;94.30;;;;;;5087707;28;20400;-59
2022/03/21 05:51:13;;;;;;;11.38;9.68;;;6.40;94.30;;;;;;5087913;28;20577;-59
2022/03/21 05:53:38;;;;;;;12.70;10.10;;;6.40;94.70;;;;;;5070342;28;20770;-56
2022/03/21 05:56:05;;;;;;;13.67;10.30;;;6.40;94.60;;;;;;5070469;28;20378;-57
2022/03/21 05:58:31;;;;;;;15.05;10.32;;;6.50;94.40;;;;;;5070532;28;20397;-58
2022/03/21 06:00:57;;;;;;;11.15;9.32;;;6.50;94.80;;;;;;5087533;28;20852;-58
2022/03/21 06:03:24;;;;;;;13.80;10.45;;;6.50;94.70;;;;;;5088866;28;20463;-59
2022/03/21 06:05:51;;;;;;;10.95;9.70;;;6.50;94.90;;;;;;5087321;28;20386;-58
2022/03/21 06:08:17;;;;;;;13.20;9.98;;;6.50;94.90;;;;;;5088190;28;20776;-59
2022/03/21 06:10:42;;;;;;;13.70;10.52;;;6.50;94.90;;;;;;5086399;28;20893;-59
2022/03/21 06:13:09;;;;;;;13.07;10.48;;;6.50;94.90;;;;;;5085991;28;20420;-58
2022/03/21 06:15:36;;;;;;;14.85;10.52;;;6.50;94.90;;;;;;5083976;28;20425;-58
2022/03/21 06:18:07;;;;;;;12.77;10.00;;;6.50;94.90;;;;;;5084032;28;20416;-58
2022/03/21 06:20:33;;;;;;;12.00;9.77;;;6.50;94.70;;;;;;5084888;28;20382;-58
2022/03/21 06:22:59;;;;;;;13.02;10.23;;;6.50;94.70;;;;;;5085081;28;20515;-58
2022/03/21 06:25:24;;;;;;;12.70;9.70;;;6.50;94.20;;;;;;5086550;28;20386;-58
2022/03/21 06:27:50;;;;;;;13.18;10.18;;;6.50;94.40;;;;;;5086657;28;20443;-57
2022/03/21 06:30:16;;;;;;;12.67;10.40;;;6.50;94.40;;;;;;5086828;28;20441;-56
2022/03/21 06:32:42;;;;;;;12.57;10.70;;;6.50;94.50;;;;;;5085283;28;20413;-59
2022/03/21 06:35:11;;;;;;;12.73;10.77;;;6.50;94.90;;;;;;5086174;28;20518;-58
2022/03/21 06:37:39;;;;;;;12.23;10.20;;;6.50;94.60;;;;;;5085510;28;20388;-54
2022/03/21 06:40:06;;;;;;;12.23;10.20;;;6.50;94.70;;;;;;5083692;28;20371;-58
2022/03/21 06:42:31;;;;;;;12.07;10.57;;;6.40;94.20;;;;;;5085175;28;20388;-59
2022/03/21 06:44:57;;;;;;;11.60;10.20;;;6.50;94.50;;;;;;5083730;28;20408;-57
2022/03/21 06:47:22;;;;;;;12.77;10.43;;;6.50;94.90;;;;;;5082710;28;20601;-57
2022/03/21 06:49:48;;;;;;;12.30;10.13;;;6.50;94.70;;;;;;5081763;28;20425;-56
2022/03/21 06:52:16;;;;;;;15.77;10.82;;;6.60;94.80;;;;;;5081780;28;20455;-59
2022/03/21 06:54:42;;;;;;;11.40;10.20;;;6.50;93.90;;;;;;5083029;28;20386;-56
2022/03/21 06:57:09;;;;;;;14.43;10.90;;;6.50;93.90;;;;;;5079786;28;20456;-57
2022/03/21 06:59:35;;;;;;;12.27;10.27;;;6.40;93.50;;;;;;5080028;28;20498;-58
2022/03/21 07:02:01;;;;;;;12.40;10.18;;;6.40;93.60;;;;;;5079593;28;20686;-59
2022/03/21 07:04:27;;;;;;;17.10;10.80;;;6.40;93.30;;;;;;5078772;28;20478;-59
2022/03/21 07:06:53;;;;;;;14.77;10.67;;;6.50;94.10;;;;;;5081733;28;20444;-59
2022/03/21 07:09:20;;;;;;;14.50;10.60;;;6.60;94.30;;;;;;5080325;28;21024;-59
2022/03/21 07:11:47;;;;;;;13.53;10.27;;;6.60;94.30;;;;;;5094373;28;20380;-56
2022/03/21 07:14:12;;;;;;;13.63;10.10;;;6.70;94.40;;;;;;5107093;28;20403;-59
2022/03/21 07:16:39;;;;;;;12.85;9.88;;;6.60;93.30;;;;;;5106974;28;20416;-58
2022/03/21 07:19:06;;;;;;;12.57;10.82;;;6.60;93.70;;;;;;5106293;28;20384;-59
2022/03/21 07:21:32;;;;;;;13.48;10.40;;;6.70;94.10;;;;;;5107506;28;20373;-58
2022/03/21 07:23:57;;;;;;;12.75;10.55;;;6.70;93.90;;;;;;5107383;28;20446;-55
2022/03/21 07:26:23;;;;;;;11.73;10.20;;;6.80;94.50;;;;;;5109801;28;20388;-59
2022/03/21 07:28:48;;;;;;;12.13;10.60;;;6.80;94.20;;;;;;5115075;28;20441;-59
2022/03/21 07:31:14;;;;;;;13.98;10.82;;;6.90;94.20;;;;;;5115042;28;20396;-58
2022/03/21 07:33:41;;;;;;;14.02;10.63;;;6.80;93.60;;;;;;5116013;28;20412;-59
2022/03/21 07:36:07;;;;;;;13.05;10.70;;;6.70;93.70;;;;;;5115587;28;20372;-58
2022/03/21 07:38:37;;;;;;;11.90;10.07;;;6.80;93.80;;;;;;5114441;28;20430;-59
2022/03/21 07:41:07;;;;;;;13.27;10.75;;;6.80;93.60;;;;;;5115388;28;20373;-59
2022/03/21 07:43:33;;;;;;;13.75;10.80;;;6.80;94.20;;;;;;5113909;28;20653;-59
2022/03/21 07:48:44;;;;;;;12.13;10.37;;;6.90;94.10;;;;;;5114660;28;20467;-58
2022/03/21 07:51:10;;;;;;;13.32;10.60;;;6.90;93.90;;;;;;5112430;28;21125;-58
2022/03/21 07:53:36;;;;;;;15.30;10.80;;;7.00;94.00;;;;;;5112750;28;20487;-59
2022/03/21 07:56:01;;;;;;;12.77;10.50;;;7.00;93.90;;;;;;5113508;28;20562;-58
2022/03/21 07:58:27;;;;;;;14.10;11.10;;;7.00;94.00;;;;;;5107500;28;20391;-59
2022/03/21 08:00:53;;;;;;;13.73;10.73;;;7.10;93.70;;;;;;5105194;28;20867;-58
2022/03/21 08:03:19;;;;;;;13.57;10.68;;;7.10;93.40;;;;;;5105437;28;20404;-57
2022/03/21 08:05:45;;;;;;;14.40;10.65;;;7.10;93.50;;;;;;5106034;28;20573;-59
2022/03/21 08:08:11;;;;;;;12.57;10.35;;;7.10;93.90;;;;;;5107044;28;20389;-59
2022/03/21 08:10:37;;;;;;;12.67;10.17;;;7.10;93.80;;;;;;5108234;28;20392;-59
2022/03/21 08:13:03;;;;;;;12.75;10.48;;;7.20;93.60;;;;;;5103949;28;20678;-58
2022/03/21 08:15:28;;;;;;;12.77;10.98;;;7.20;93.40;;;;;;5105249;28;20391;-59
2022/03/21 08:17:59;;;;;;;13.18;10.05;;;7.20;94.10;;;;;;5106499;28;20404;-58
2022/03/21 08:20:33;;;;;;;13.75;11.07;;;7.30;94.00;;;;;;5107423;28;20384;-57
2022/03/21 08:23:05;;;;;;;12.05;10.27;;;7.40;94.00;;;;;;5107546;28;20403;-58
2022/03/21 08:25:32;;;;;;;13.23;10.85;;;7.40;93.90;;;;;;5104475;28;20787;-59
2022/03/21 08:27:58;;;;;;;14.55;10.45;;;7.50;93.90;;;;;;5102020;28;20876;-59
2022/03/21 08:30:24;;;;;;;12.73;10.63;;;7.50;93.80;;;;;;5103625;28;20396;-59
2022/03/21 08:32:50;;;;;;;14.88;10.82;;;7.60;93.90;;;;;;5105583;28;20392;-59
2022/03/21 08:35:20;;;;;;;12.43;10.20;;;7.60;94.10;;;;;;5103896;28;20383;-59
2022/03/21 08:37:46;;;;;;;12.27;10.53;;;7.70;93.80;;;;;;5105280;28;20423;-57
2022/03/21 08:40:13;;;;;;;13.93;11.13;;;7.70;93.80;;;;;;5107043;28;20376;-56
2022/03/21 08:42:39;;;;;;;14.07;10.77;;;7.70;94.10;;;;;;5108524;28;20378;-59
2022/03/21 08:45:07;;;;;;;15.15;11.25;;;7.70;94.40;;;;;;5107200;28;20412;-59
2022/03/21 08:47:33;;;;;;;15.38;11.30;;;7.80;94.10;;;;;;5107356;28;20384;-57
2022/03/21 08:49:58;;;;;;;14.95;11.32;;;7.80;94.10;;;;;;5107184;28;20463;-59
2022/03/21 08:52:24;;;;;;;12.77;10.97;;;7.80;93.80;;;;;;5106458;28;20791;-59
2022/03/21 08:54:50;;;;;;;12.73;10.15;;;7.90;94.00;;;;;;5106279;28;20737;-59
2022/03/21 08:57:17;;;;;;;15.38;11.57;;;7.80;93.70;;;;;;5104529;28;20377;-57
2022/03/21 08:59:44;;;;;;;12.63;10.40;;;7.90;94.10;;;;;;5102115;28;20667;-57
2022/03/21 09:02:09;;;;;;;12.40;10.07;;;8.00;93.70;;;;;;5101873;28;20590;-58
2022/03/21 09:04:35;;;;;;;12.73;11.03;;;8.00;93.80;;;;;;5102523;28;20665;-59
2022/03/21 09:07:02;;;;;;;11.27;10.02;;;8.10;93.90;;;;;;5103249;28;20471;-57
2022/03/21 09:09:28;;;;;;;12.13;10.38;;;8.20;94.70;;;;;;5100722;28;20383;-55
2022/03/21 09:11:54;;;;;;;13.10;10.70;;;8.30;93.80;;;;;;5102024;28;20385;-57
2022/03/21 09:14:20;;;;;;;11.30;10.05;;;8.30;93.00;;;;;;5100351;28;20865;-57
2022/03/21 09:16:45;;;;;;;11.68;10.45;;;8.40;93.40;;;;;;5103359;28;20691;-59
2022/03/21 09:19:11;;;;;;;13.43;10.93;;;8.40;93.90;;;;;;5086372;28;20413;-57
2022/03/21 09:21:37;;;;;;;14.33;10.90;;;8.50;93.00;;;;;;5085318;28;20587;-57
2022/03/21 09:24:03;;;;;;;13.52;10.77;;;8.60;93.50;;;;;;5083286;28;20388;-59
2022/03/21 09:26:29;;;;;;;13.25;10.90;;;8.60;93.00;;;;;;5082643;28;20818;-58
2022/03/21 09:29:03;;;;;;;14.57;10.73;;;8.70;92.80;;;;;;5082877;28;20784;-57
2022/03/21 09:31:32;;;;;;;11.52;10.13;;;8.70;92.60;;;;;;5083691;28;20448;-59
2022/03/21 09:33:59;;;;;;;12.65;9.70;;;8.70;92.80;;;;;;5084167;28;20588;-59
2022/03/21 09:36:25;;;;;;;14.40;10.77;;;8.80;92.50;;;;;;5083559;28;20368;-57
2022/03/21 09:38:51;;;;;;;12.38;10.55;;;8.80;92.50;;;;;;5084338;28;20445;-57
2022/03/21 09:41:22;;;;;;;11.65;10.10;;;8.90;93.20;;;;;;5099763;28;20380;-59
2022/03/21 09:43:51;;;;;;;12.07;10.70;;;9.00;93.40;;;;;;5081964;28;20823;-59
2022/03/21 09:46:17;;;;;;;13.73;10.35;;;9.10;93.50;;;;;;5082474;28;20432;-59
2022/03/21 09:48:47;;;;;;;13.82;10.73;;;9.20;93.10;;;;;;5079996;28;20556;-59
2022/03/21 09:51:19;;;;;;;11.70;9.90;;;9.20;92.30;;;;;;5082749;28;20376;-58
2022/03/21 09:53:45;;;;;;;11.93;10.13;;;9.30;92.80;;;;;;5079836;28;20408;-59
2022/03/21 09:56:10;;;;;;;14.60;10.45;;;9.30;92.60;;;;;;5080598;28;20436;-57
2022/03/21 09:58:36;;;;;;;11.30;10.10;;;9.40;93.30;;;;;;5085964;28;20385;-57
2022/03/21 10:01:02;;;;;;;13.60;10.77;;;9.50;92.80;;;;;;5087505;28;20445;-58
2022/03/21 10:03:29;;;;;;;14.30;10.32;;;9.50;91.90;;;;;;5089913;28;20468;-58
2022/03/21 10:05:55;;;;;;;12.00;10.70;;;9.60;92.20;;;;;;5088712;28;20384;-57
2022/03/21 10:08:24;;;;;;;14.63;10.73;;;9.60;91.80;;;;;;5090439;28;20458;-58
2022/03/21 10:10:52;;;;;;;14.55;11.07;;;9.60;91.50;;;;;;5109447;28;20456;-57
2022/03/21 10:13:19;;;;;;;11.02;9.82;;;9.60;91.90;;;;;;5094792;28;20901;-64
2022/03/21 10:15:45;;;;;;;11.05;9.95;;;9.90;97.10;;;;;;5092534;28;20403;-64
2022/03/21 10:18:12;;;;;;;12.25;10.35;;;10.10;96.70;;;;;;5110867;28;20404;-64
2022/03/21 10:20:39;;;;;;;12.23;10.93;;;10.20;94.90;;;;;;5109651;28;20376;-59
2022/03/21 10:23:22;;;;;;;12.23;10.50;;;10.20;93.30;;;;;;5131078;27;20808;-58
2022/03/21 10:25:50;;;;;;;13.45;11.30;;;10.10;91.20;;;;;;5131799;27;20381;-58
2022/03/21 10:28:34;;;;;;;11.93;10.45;;;10.00;91.50;;;;;;5112113;27;20408;-57
2022/03/21 10:31:01;;;;;;;12.30;10.32;;;10.10;92.50;;;;;;5111311;27;20459;-58
2022/03/21 10:33:28;;;;;;;12.77;10.50;;;10.20;93.50;;;;;;5109767;27;20483;-58
2022/03/21 10:35:54;;;;;;;12.93;11.13;;;10.30;92.30;;;;;;5111655;27;20379;-58
2022/03/21 10:38:31;;;;;;;11.88;10.63;;;10.30;92.20;;;;;;5113468;27;20473;-58
2022/03/21 10:40:57;;;;;;;12.57;10.63;;;10.40;92.20;;;;;;5131918;27;20389;-57
2022/03/21 10:43:25;;;;;;;12.67;10.60;;;10.50;92.00;;;;;;5113382;27;20382;-58
2022/03/21 10:45:53;;;;;;;13.00;10.90;;;10.60;91.80;;;;;;5115436;27;21024;-59
2022/03/21 10:48:21;;;;;;;12.50;10.80;;;10.90;91.10;;;;;;5132476;27;20379;-57
2022/03/21 10:50:49;;;;;;;11.50;10.30;;;11.10;91.00;;;;;;5113999;27;20428;-57
2022/03/21 10:53:19;;;;;;;12.88;11.13;;;11.30;89.80;;;;;;5113301;27;20887;-58
2022/03/21 10:55:47;;;;;;;12.90;10.98;;;11.30;88.30;;;;;;5114812;27;20418;-57
2022/03/21 10:58:17;;;;;;;12.20;10.93;;;11.50;90.30;;;;;;5111056;27;20405;-59
2022/03/21 11:00:43;;;;;;;11.68;10.05;;;11.70;90.30;;;;;;5110617;27;20699;-58
2022/03/21 11:03:15;;;;;;;12.65;11.35;;;12.00;89.90;;;;;;5129550;27;20912;-58
2022/03/21 11:05:46;;;;;;;12.10;10.75;;;12.20;88.00;;;;;;5130827;27;20383;-57
2022/03/21 11:08:17;;;;;;;14.73;11.20;;;12.20;88.30;;;;;;5113393;27;20386;-58
2022/03/21 11:10:45;;;;;;;11.48;10.18;;;12.40;88.70;;;;;;5112491;28;20387;-58
2022/03/21 11:13:11;;;;;;;11.70;10.47;;;12.60;89.00;;;;;;5130785;27;20401;-58
2022/03/21 11:15:40;;;;;;;12.17;10.93;;;12.80;88.80;;;;;;5111418;28;20498;-59
2022/03/21 11:18:06;;;;;;;12.52;11.23;;;13.00;89.50;;;;;;5112667;28;20682;-58
2022/03/21 11:20:32;;;;;;;13.00;11.50;;;13.10;87.80;;;;;;5113253;28;20385;-59
2022/03/21 11:23:00;;;;;;;14.23;10.93;;;13.20;87.10;;;;;;5115665;28;21002;-59
2022/03/21 11:25:31;;;;;;;12.52;11.20;;;13.40;86.00;;;;;;5113736;28;20378;-59
2022/03/21 11:28:24;;;;;;;14.38;11.25;;;13.50;83.70;;;;;;5115139;28;20434;-58
2022/03/21 11:31:09;;;;;;;12.93;11.45;;;13.40;84.90;;;;;;5131427;28;20762;-58
2022/03/21 11:33:47;;;;;;;14.98;11.40;;;13.70;84.20;;;;;;5113396;28;20944;-58
2022/03/21 11:36:13;;;;;;;12.82;11.32;;;13.50;81.70;;;;;;5132376;28;20366;-56
2022/03/21 11:38:45;;;;;;;11.80;10.57;;;13.40;81.80;;;;;;5115614;28;20478;-59
2022/03/21 11:41:18;;;;;;;11.65;10.45;;;13.80;83.90;;;;;;5115190;28;20635;-56
2022/03/21 11:44:20;;;;;;;12.90;10.50;;;14.20;84.70;;;;;;5113225;28;20813;-57
2022/03/21 11:46:48;;;;;;;12.40;11.00;;;14.50;83.40;;;;;;5132867;28;20789;-58
2022/03/21 11:49:20;;;;;;;12.32;11.00;;;14.50;80.50;;;;;;5131352;28;20375;-56
2022/03/21 11:51:57;;;;;;;13.10;11.10;;;14.50;81.10;;;;;;5112347;28;20487;-58
2022/03/21 11:54:37;;;;;;;14.73;11.30;;;14.50;81.10;;;;;;5112520;28;20394;-59
2022/03/21 11:57:13;;;;;;;12.27;10.98;;;14.60;79.50;;;;;;5112862;28;20382;-59
2022/03/21 11:59:39;;;;;;;12.20;10.90;;;14.90;82.40;;;;;;5130995;28;20409;-59
2022/03/21 12:02:11;;;;;;;12.10;10.77;;;15.00;80.60;;;;;;5114220;28;20393;-59
2022/03/21 12:04:37;;;;;;;13.40;11.15;;;14.90;77.60;;;;;;5116932;28;20383;-57
2022/03/21 12:07:12;;;;;;;11.38;10.27;;;14.80;79.10;;;;;;5131231;28;20375;-59
2022/03/21 12:09:43;;;;;;;12.90;10.73;;;15.10;80.10;;;;;;5129805;28;20393;-59
2022/03/21 12:12:10;;;;;;;12.48;10.93;;;15.30;78.20;;;;;;5113241;27;20393;-59
2022/03/21 12:14:46;;;;;;;12.63;10.68;;;15.40;77.80;;;;;;5133482;27;20390;-59
2022/03/21 12:17:12;;;;;;;12.20;11.00;;;15.50;79.50;;;;;;5117504;27;20502;-58
2022/03/21 12:19:58;;;;;;;13.03;11.10;;;15.70;77.80;;;;;;5115640;27;20409;-58
2022/03/21 12:22:29;;;;;;;13.63;10.50;;;15.70;77.10;;;;;;5116737;27;20379;-58
2022/03/21 12:24:57;;;;;;;13.18;10.98;;;16.00;77.70;;;;;;5133693;27;20378;-58
2022/03/21 12:27:39;;;;;;;12.63;11.27;;;16.20;76.80;;;;;;5115353;27;20387;-59
2022/03/21 12:30:20;;;;;;;13.57;11.00;;;16.00;76.10;;;;;;5134253;27;20861;-57
2022/03/21 12:32:55;;;;;;;12.98;11.57;;;16.20;75.60;;;;;;5115679;27;20386;-59
2022/03/21 12:35:45;;;;;;;12.55;10.45;;;16.30;74.90;;;;;;5114541;27;20500;-59
2022/03/21 12:38:18;;;;;;;12.30;11.00;;;16.30;74.30;;;;;;5116076;27;20481;-59
2022/03/21 12:40:47;;;;;;;13.60;11.37;;;16.40;74.50;;;;;;5116732;27;20379;-60
2022/03/21 12:43:15;;;;;;;12.23;11.00;;;16.40;72.60;;;;;;5117753;27;20398;-59
2022/03/21 12:45:44;;;;;;;12.60;11.02;;;16.40;72.90;;;;;;5135626;27;20387;-60
2022/03/21 12:48:12;;;;;;;12.80;11.17;;;16.40;73.10;;;;;;5135951;27;20547;-60
2022/03/21 12:50:39;;;;;;;12.48;11.18;;;16.20;71.50;;;;;;5117130;27;20786;-58
2022/03/21 12:53:12;;;;;;;11.75;10.55;;;16.40;73.20;;;;;;5116835;27;20423;-59
2022/03/21 12:55:38;;;;;;;11.80;10.60;;;16.70;73.40;;;;;;5116842;27;20371;-60
2022/03/21 12:58:10;;;;;;;13.38;11.45;;;16.90;73.50;;;;;;5118511;27;20845;-56
2022/03/21 13:00:38;;;;;;;12.50;11.30;;;16.90;71.70;;;;;;5116837;27;20458;-56